createdAt,value
2018-06-13T00:01:48.685Z,2.50
2018-06-13T00:04:17.823Z,4.30
2018-06-13T00:06:46.925Z,4.50
2018-06-13T00:09:16.229Z,3.13
2018-06-13T00:11:45.249Z,4.20
2018-06-13T00:14:14.353Z,3.07
2018-06-13T00:16:43.156Z,3.00
2018-06-13T00:19:12.421Z,4.80
2018-06-13T00:21:41.500Z,3.00
2018-06-13T00:24:10.869Z,3.70
2018-06-13T00:26:40.026Z,6.00
2018-06-13T00:29:09.377Z,6.33
2018-06-13T00:31:38.749Z,8.33
2018-06-13T00:34:07.811Z,7.73
2018-06-13T00:36:36.919Z,4.73
2018-06-13T00:39:06.973Z,4.53
2018-06-13T00:41:36.133Z,9.80
2018-06-13T00:44:05.251Z,4.20
2018-06-13T00:46:34.605Z,4.83
2018-06-13T00:49:03.851Z,3.77
2018-06-13T00:51:33.054Z,3.50
2018-06-13T00:54:02.429Z,3.40
2018-06-13T00:56:31.849Z,3.67
2018-06-13T00:59:00.953Z,3.13
2018-06-13T01:01:30.355Z,5.80
2018-06-13T01:03:59.555Z,3.50
2018-06-13T01:06:28.739Z,3.40
2018-06-13T01:08:58.788Z,2.23
2018-06-13T01:11:27.881Z,3.40
2018-06-13T01:13:57.013Z,2.30
2018-06-13T01:16:26.500Z,2.50
2018-06-13T01:18:55.637Z,4.17
2018-06-13T01:21:24.700Z,2.50
2018-06-13T01:23:54.112Z,3.03
2018-06-13T01:26:23.158Z,2.37
2018-06-13T01:28:52.300Z,2.33
2018-06-13T01:31:22.166Z,10.50
2018-06-13T01:33:51.259Z,2.23
2018-06-13T01:36:28.584Z,2.50
2018-06-13T01:38:57.944Z,3.07
2018-06-13T01:41:27.195Z,2.50
2018-06-13T01:43:56.432Z,2.80
2018-06-13T01:46:25.638Z,7.70
2018-06-13T01:48:55.502Z,4.53
2018-06-13T01:51:25.301Z,3.53
2018-06-13T01:53:54.374Z,6.30
2018-06-13T01:56:23.444Z,3.67
2018-06-13T01:58:52.868Z,3.20
2018-06-13T02:01:21.946Z,6.17
2018-06-13T02:03:51.152Z,5.40
2018-06-13T02:06:20.472Z,8.20
2018-06-13T02:08:49.516Z,6.60
2018-06-13T02:11:18.292Z,15.07
2018-06-13T02:13:47.228Z,16.23
2018-06-13T02:16:16.252Z,19.77
2018-06-13T02:18:45.342Z,21.07
2018-06-13T02:21:14.740Z,23.60
2018-06-13T02:23:43.898Z,21.30
2018-06-13T02:26:13.972Z,24.00
2018-06-13T02:28:43.332Z,25.77
2018-06-13T02:31:12.504Z,22.00
2018-06-13T02:33:42.082Z,25.73
2018-06-13T02:36:11.428Z,25.10
2018-06-13T02:38:40.640Z,25.97
2018-06-13T02:41:09.704Z,26.93
2018-06-13T02:43:39.016Z,25.67
2018-06-13T02:46:08.160Z,24.20
2018-06-13T02:48:37.260Z,27.80
2018-06-13T02:51:06.592Z,25.93
2018-06-13T02:53:36.274Z,25.77
2018-06-13T02:56:05.418Z,24.90
2018-06-13T02:58:34.990Z,22.30
2018-06-13T03:01:04.207Z,19.63
2018-06-13T03:03:32.948Z,16.00
2018-06-13T03:06:02.019Z,15.07
2018-06-13T03:08:31.474Z,11.87
2018-06-13T03:11:00.586Z,11.83
2018-06-13T03:13:30.074Z,7.23
2018-06-13T03:15:59.183Z,10.63
2018-06-13T03:18:28.279Z,11.17
2018-06-13T03:20:57.614Z,11.30
2018-06-13T03:23:26.554Z,10.97
2018-06-13T03:25:55.636Z,11.60
2018-06-13T03:28:24.849Z,15.03
2018-06-13T03:30:53.935Z,19.50
2018-06-13T03:33:23.085Z,16.20
2018-06-13T03:35:53.011Z,18.47
2018-06-13T03:38:22.308Z,17.07
2018-06-13T03:40:51.342Z,16.80
2018-06-13T03:43:20.666Z,18.70
2018-06-13T03:45:49.768Z,19.23
2018-06-13T03:48:18.600Z,16.53
2018-06-13T03:50:47.948Z,16.67
2018-06-13T03:53:17.097Z,17.30
2018-06-13T03:55:46.168Z,22.57
2018-06-13T03:58:15.418Z,16.40
2018-06-13T04:00:44.512Z,17.37
2018-06-13T04:03:13.671Z,17.30
2018-06-13T04:05:43.194Z,16.90
2018-06-13T04:08:12.251Z,14.87
2018-06-13T04:10:41.352Z,18.93
2018-06-13T04:13:10.758Z,17.80
2018-06-13T04:15:40.164Z,15.70
2018-06-13T04:18:09.292Z,15.40
2018-06-13T04:20:38.360Z,14.10
2018-06-13T04:23:08.026Z,19.23
2018-06-13T04:25:36.773Z,16.70
2018-06-13T04:28:05.868Z,18.80
2018-06-13T04:30:35.248Z,17.93
2018-06-13T04:33:05.612Z,22.03
2018-06-13T04:35:34.896Z,21.70
2018-06-13T04:38:04.601Z,18.97
2018-06-13T04:40:33.696Z,22.60
2018-06-13T04:43:02.861Z,17.20
2018-06-13T04:45:32.051Z,19.70
2018-06-13T04:48:01.144Z,16.00
2018-06-13T04:50:30.575Z,20.40
2018-06-13T04:52:59.717Z,19.33
2018-06-13T04:55:29.484Z,22.80
2018-06-13T04:57:58.765Z,22.50
2018-06-13T05:00:27.848Z,16.03
2018-06-13T05:02:56.904Z,14.70
2018-06-13T05:05:26.210Z,19.50
2018-06-13T05:07:55.347Z,16.80
2018-06-13T05:10:24.530Z,15.90
2018-06-13T05:12:54.001Z,14.77
2018-06-13T05:15:23.076Z,17.23
2018-06-13T05:17:52.185Z,15.73
2018-06-13T05:20:21.569Z,15.43
2018-06-13T05:22:50.701Z,18.93
2018-06-13T05:25:19.907Z,19.83
2018-06-13T05:27:48.791Z,18.97
2018-06-13T05:30:17.747Z,16.20
2018-06-13T05:32:46.891Z,11.17
2018-06-13T05:35:15.917Z,14.50
2018-06-13T05:37:45.050Z,10.50
2018-06-13T05:40:14.309Z,9.53
2018-06-13T05:42:43.467Z,9.93
2018-06-13T05:45:12.195Z,8.63
2018-06-13T05:47:41.135Z,9.63
2018-06-13T05:50:10.733Z,10.07
2018-06-13T05:52:39.787Z,7.00
2018-06-13T05:55:08.829Z,7.20
2018-06-13T05:57:38.283Z,6.50
2018-06-13T06:00:07.403Z,5.90
2018-06-13T06:02:36.445Z,6.23
2018-06-13T06:05:05.660Z,7.20
2018-06-13T06:07:34.738Z,6.57
2018-06-13T06:10:03.957Z,9.90
2018-06-13T06:12:33.395Z,7.23
2018-06-13T06:15:02.444Z,8.47
2018-06-13T06:17:31.511Z,7.83
2018-06-13T06:20:00.843Z,7.30
2018-06-13T06:22:29.980Z,11.43
2018-06-13T06:24:59.027Z,13.23
2018-06-13T06:27:28.240Z,7.03
2018-06-13T06:29:57.270Z,7.10
2018-06-13T06:32:26.316Z,8.20
2018-06-13T06:34:56.470Z,8.40
2018-06-13T06:37:25.517Z,8.10
2018-06-13T06:39:54.606Z,9.07
2018-06-13T06:42:23.644Z,8.10
2018-06-13T06:44:52.648Z,10.43
2018-06-13T06:47:21.732Z,11.10
2018-06-13T06:49:51.066Z,7.17
2018-06-13T06:52:20.110Z,9.87
2018-06-13T06:54:49.131Z,6.90
2018-06-13T06:57:18.420Z,10.13
2018-06-13T06:59:47.496Z,9.50
2018-06-13T07:02:16.535Z,8.63
2018-06-13T07:04:45.977Z,6.87
2018-06-13T07:07:15.011Z,7.83
2018-06-13T07:09:44.140Z,10.73
2018-06-13T07:12:13.548Z,9.30
2018-06-13T07:14:42.629Z,9.63
2018-06-13T07:17:11.933Z,8.40
2018-06-13T07:19:41.133Z,7.37
2018-06-13T07:22:10.324Z,8.33
2018-06-13T07:24:39.458Z,8.03
2018-06-13T07:27:08.760Z,7.63
2018-06-13T07:29:38.132Z,15.10
2018-06-13T07:32:07.192Z,7.20
2018-06-13T07:34:36.668Z,9.20
2018-06-13T07:37:05.739Z,12.23
2018-06-13T07:39:34.588Z,8.53
2018-06-13T07:42:03.713Z,15.10
2018-06-13T07:44:33.165Z,13.57
2018-06-13T07:47:02.609Z,9.00
2018-06-13T07:49:31.695Z,16.93
2018-06-13T07:52:00.763Z,8.40
2018-06-13T07:54:30.171Z,8.20
2018-06-13T07:56:59.352Z,7.57
2018-06-13T07:59:28.461Z,7.40
2018-06-13T08:01:57.822Z,10.50
2018-06-13T08:04:26.570Z,9.77
2018-06-13T08:06:55.563Z,13.20
2018-06-13T08:09:25.080Z,9.10
2018-06-13T08:11:54.116Z,12.77
2018-06-13T08:14:23.229Z,9.50
2018-06-13T08:16:52.671Z,11.43
2018-06-13T08:19:21.667Z,8.03
2018-06-13T08:21:50.709Z,7.10
2018-06-13T08:24:20.196Z,10.30
2018-06-13T08:26:54.507Z,9.33
2018-06-13T08:29:23.511Z,8.77
2018-06-13T08:31:52.509Z,19.47
2018-06-13T08:34:21.553Z,7.57
2018-06-13T08:36:50.976Z,8.50
2018-06-13T08:39:20.054Z,6.87
2018-06-13T08:41:49.289Z,6.50
2018-06-13T08:44:18.577Z,8.80
2018-06-13T08:46:48.123Z,14.17
2018-06-13T08:49:17.181Z,7.33
2018-06-13T08:51:46.479Z,9.30
2018-06-13T08:54:15.583Z,8.83
2018-06-13T08:56:44.451Z,6.93
2018-06-13T08:59:13.717Z,6.40
2018-06-13T09:01:42.761Z,7.60
2018-06-13T09:04:11.882Z,10.80
2018-06-13T09:06:41.104Z,7.73
2018-06-13T09:09:10.297Z,10.27
2018-06-13T09:11:39.341Z,7.13
2018-06-13T09:14:08.697Z,11.10
2018-06-13T09:16:37.737Z,8.80
2018-06-13T09:19:06.443Z,9.00
2018-06-13T09:21:35.755Z,8.43
2018-06-13T09:24:04.983Z,10.60
2018-06-13T09:26:34.273Z,12.10
2018-06-13T09:29:03.557Z,8.53
2018-06-13T09:31:32.617Z,8.17
2018-06-13T09:34:01.415Z,7.10
2018-06-13T09:36:30.809Z,12.70
2018-06-13T09:39:00.369Z,8.60
2018-06-13T09:41:29.523Z,8.37
2018-06-13T09:43:58.659Z,9.00
2018-06-13T09:46:27.650Z,9.80
2018-06-13T09:48:57.251Z,11.17
2018-06-13T09:51:26.611Z,9.20
2018-06-13T09:53:55.681Z,8.40
2018-06-13T09:56:24.788Z,11.07
2018-06-13T09:58:59.584Z,8.53
2018-06-13T10:01:34.069Z,10.50
2018-06-13T10:04:03.119Z,12.97
2018-06-13T10:06:32.073Z,8.77
2018-06-13T10:09:01.105Z,9.67
2018-06-13T10:11:30.265Z,11.30
2018-06-13T10:13:59.328Z,9.27
2018-06-13T10:16:28.079Z,10.57
2018-06-13T10:18:57.812Z,11.33
2018-06-13T10:21:26.861Z,12.40
2018-06-13T10:23:56.011Z,13.70
2018-06-13T10:26:25.428Z,13.20
2018-06-13T10:28:54.503Z,10.30
2018-06-13T10:31:23.219Z,13.83
2018-06-13T10:33:52.684Z,12.50
2018-06-13T10:36:21.785Z,14.80
2018-06-13T10:38:50.500Z,14.90
2018-06-13T10:41:19.673Z,13.60
2018-06-13T10:43:48.793Z,14.57
2018-06-13T10:46:17.836Z,14.77
2018-06-13T10:48:47.264Z,13.80
2018-06-13T10:51:16.800Z,16.83
2018-06-13T10:53:45.830Z,14.30
2018-06-13T10:56:15.165Z,13.60
2018-06-13T10:58:44.213Z,12.93
2018-06-13T11:01:13.298Z,15.47
2018-06-13T11:03:42.801Z,12.70
2018-06-13T11:06:11.848Z,16.47
2018-06-13T11:08:40.608Z,13.87
2018-06-13T11:11:09.802Z,16.90
2018-06-13T11:13:38.824Z,12.23
2018-06-13T11:16:07.546Z,16.33
2018-06-13T11:18:36.866Z,14.43
2018-06-13T11:21:05.944Z,15.97
2018-06-13T11:23:35.029Z,14.17
2018-06-13T11:26:04.233Z,17.27
2018-06-13T11:28:33.312Z,15.10
2018-06-13T11:31:02.359Z,18.37
2018-06-13T11:33:31.572Z,14.53
2018-06-13T11:36:00.612Z,17.70
2018-06-13T11:38:29.704Z,14.10
2018-06-13T11:40:59.166Z,14.97
2018-06-13T11:43:28.207Z,15.10
2018-06-13T11:45:57.336Z,17.23
2018-06-13T11:48:26.779Z,16.03
2018-06-13T11:50:55.848Z,18.83
2018-06-13T11:53:25.483Z,21.17
2018-06-13T11:55:54.568Z,17.83
2018-06-13T11:58:24.400Z,14.17
2018-06-13T12:00:53.150Z,16.03
2018-06-13T12:03:22.093Z,20.40
2018-06-13T12:05:51.232Z,18.13
2018-06-13T12:08:20.394Z,17.00
2018-06-13T12:10:49.653Z,15.27
2018-06-13T12:13:18.760Z,16.97
2018-06-13T12:15:47.812Z,14.73
2018-06-13T12:18:17.193Z,16.73
2018-06-13T12:20:46.517Z,17.73
2018-06-13T12:23:15.310Z,18.60
2018-06-13T12:25:44.844Z,14.93
2018-06-13T12:28:13.564Z,15.97
2018-06-13T12:30:42.536Z,17.40
2018-06-13T12:33:11.883Z,16.30
2018-06-13T12:35:40.966Z,17.33
2018-06-13T12:38:10.000Z,15.87
2018-06-13T12:40:39.196Z,24.57
2018-06-13T12:43:08.248Z,15.30
2018-06-13T12:45:37.370Z,19.23
2018-06-13T12:48:06.616Z,16.80
2018-06-13T12:50:35.676Z,15.93
2018-06-13T12:53:04.771Z,15.00
2018-06-13T12:55:34.736Z,17.03
2018-06-13T12:58:03.879Z,15.63
2018-06-13T13:00:32.949Z,16.30
2018-06-13T13:03:02.212Z,15.73
2018-06-13T13:05:31.292Z,16.83
2018-06-13T13:08:00.389Z,19.33
2018-06-13T13:10:30.386Z,16.70
2018-06-13T13:12:59.086Z,12.77
2018-06-13T13:15:28.072Z,16.23
2018-06-13T13:17:57.312Z,15.53
2018-06-13T13:20:26.469Z,20.20
2018-06-13T13:22:55.472Z,18.17
2018-06-13T13:25:24.558Z,13.10
2018-06-13T13:27:53.631Z,17.80
2018-06-13T13:30:22.689Z,17.13
2018-06-13T13:32:52.183Z,13.77
2018-06-13T13:35:21.237Z,15.00
2018-06-13T13:37:50.213Z,16.40
2018-06-13T13:40:19.537Z,13.77
2018-06-13T13:42:48.861Z,14.57
2018-06-13T13:45:17.912Z,19.57
2018-06-13T13:47:47.372Z,15.63
2018-06-13T13:50:16.468Z,14.73
2018-06-13T13:52:45.608Z,15.00
2018-06-13T13:55:14.930Z,13.30
2018-06-13T13:57:44.191Z,13.77
2018-06-13T14:00:13.307Z,14.17
2018-06-13T14:02:42.854Z,16.67
2018-06-13T14:05:11.925Z,18.40
2018-06-13T14:07:40.647Z,16.67
2018-06-13T14:10:09.862Z,18.63
2018-06-13T14:12:38.941Z,26.37
2018-06-13T14:15:07.990Z,22.63
2018-06-13T14:17:37.447Z,19.67
2018-06-13T14:20:07.043Z,21.57
2018-06-13T14:22:36.231Z,18.37
2018-06-13T14:25:05.647Z,15.50
2018-06-13T14:27:34.734Z,19.37
2018-06-13T14:30:03.930Z,19.80
2018-06-13T14:32:33.274Z,25.30
2018-06-13T14:35:02.332Z,18.23
2018-06-13T14:37:31.394Z,18.07
2018-06-13T14:40:00.841Z,21.67
2018-06-13T14:42:29.698Z,18.63
2018-06-13T14:44:58.689Z,18.40
2018-06-13T14:47:27.581Z,22.40
2018-06-13T14:49:57.314Z,18.83
2018-06-13T14:52:26.448Z,16.57
2018-06-13T14:54:55.566Z,32.83
2018-06-13T14:57:24.599Z,18.40
2018-06-13T14:59:54.394Z,27.37
2018-06-13T15:02:23.727Z,17.67
2018-06-13T15:04:52.995Z,17.20
2018-06-13T15:07:21.701Z,22.20
2018-06-13T15:09:50.813Z,15.47
2018-06-13T15:12:19.932Z,17.50
2018-06-13T15:14:49.018Z,22.23
2018-06-13T15:17:18.323Z,21.50
2018-06-13T15:19:47.383Z,18.10
2018-06-13T15:22:16.625Z,17.60
2018-06-13T15:24:46.129Z,15.93
2018-06-13T15:27:15.260Z,15.23
2018-06-13T15:29:44.337Z,19.20
2018-06-13T15:32:13.743Z,17.20
2018-06-13T15:34:42.729Z,19.03
2018-06-13T15:37:11.859Z,24.00
2018-06-13T15:39:41.245Z,17.30
2018-06-13T15:42:10.300Z,18.63
2018-06-13T15:44:39.899Z,18.73
2018-06-13T15:47:09.469Z,18.33
2018-06-13T15:49:38.535Z,20.77
2018-06-13T15:52:07.311Z,15.97
2018-06-13T15:54:36.383Z,18.80
2018-06-13T15:57:05.640Z,18.87
2018-06-13T15:59:34.785Z,23.20
2018-06-13T16:02:04.627Z,15.80
2018-06-13T16:04:33.745Z,22.37
2018-06-13T16:07:02.834Z,17.13
2018-06-13T16:09:32.001Z,18.60
2018-06-13T16:12:00.940Z,17.30
2018-06-13T16:14:29.978Z,27.87
2018-06-13T16:16:59.447Z,17.30
2018-06-13T16:19:28.603Z,16.43
2018-06-13T16:21:57.794Z,19.67
2018-06-13T16:24:27.118Z,19.97
2018-06-13T16:26:56.278Z,16.13
2018-06-13T16:29:25.410Z,16.10
2018-06-13T16:31:54.713Z,17.53
2018-06-13T16:34:23.828Z,17.93
2018-06-13T16:36:52.893Z,16.43
2018-06-13T16:39:22.371Z,16.10
2018-06-13T16:41:51.266Z,16.03
2018-06-13T16:44:20.217Z,23.70
2018-06-13T16:46:49.653Z,16.60
2018-06-13T16:49:18.741Z,18.53
2018-06-13T16:51:56.691Z,18.87
2018-06-13T16:54:36.843Z,17.47
2018-06-13T16:57:06.235Z,19.87
2018-06-13T16:59:35.331Z,27.13
2018-06-13T17:02:04.441Z,17.77
2018-06-13T17:04:33.829Z,16.90
2018-06-13T17:07:02.916Z,23.13
2018-06-13T17:09:31.637Z,17.27
2018-06-13T17:12:01.028Z,17.93
2018-06-13T17:14:30.205Z,19.43
2018-06-13T17:16:59.242Z,20.27
2018-06-13T17:19:28.421Z,17.63
2018-06-13T17:21:57.597Z,19.50
2018-06-13T17:24:26.705Z,17.90
2018-06-13T17:26:55.908Z,19.93
2018-06-13T17:29:24.999Z,16.67
2018-06-13T17:31:54.113Z,17.23
2018-06-13T17:34:23.539Z,16.90
2018-06-13T17:36:52.623Z,16.87
2018-06-13T17:39:21.829Z,19.20
2018-06-13T17:41:51.083Z,18.37
2018-06-13T17:44:20.177Z,20.97
2018-06-13T17:46:49.293Z,19.27
2018-06-13T17:49:18.443Z,16.17
2018-06-13T17:51:47.177Z,18.37
2018-06-13T17:54:16.213Z,15.07
2018-06-13T17:56:45.771Z,14.27
2018-06-13T17:59:14.976Z,16.33
2018-06-13T18:01:44.174Z,15.10
2018-06-13T18:04:13.423Z,13.43
2018-06-13T18:06:43.081Z,14.03
2018-06-13T18:09:12.209Z,18.67
2018-06-13T18:11:41.415Z,15.33
2018-06-13T18:14:10.567Z,13.90
2018-06-13T18:16:39.761Z,16.53
2018-06-13T18:19:09.383Z,18.30
2018-06-13T18:21:38.549Z,17.70
2018-06-13T18:24:12.933Z,16.63
2018-06-13T18:26:41.725Z,19.23
2018-06-13T18:29:10.744Z,16.90
2018-06-13T18:31:40.178Z,15.13
2018-06-13T18:34:09.314Z,13.43
2018-06-13T18:36:38.509Z,16.33
2018-06-13T18:39:09.947Z,21.37
2018-06-13T18:41:39.668Z,16.53
2018-06-13T18:44:09.554Z,16.77
2018-06-13T18:46:39.959Z,18.23
2018-06-13T18:49:09.636Z,17.17
2018-06-13T18:51:38.676Z,18.40
2018-06-13T18:54:08.204Z,18.93
2018-06-13T18:56:37.316Z,15.50
2018-06-13T18:59:06.920Z,16.60
2018-06-13T19:01:37.093Z,17.50
2018-06-13T19:04:06.396Z,19.03
2018-06-13T19:06:35.328Z,16.27
2018-06-13T19:09:07.248Z,21.20
2018-06-13T19:11:36.394Z,19.37
2018-06-13T19:14:05.396Z,18.00
2018-06-13T19:16:34.438Z,18.23
2018-06-13T19:19:03.620Z,23.17
2018-06-13T19:21:32.833Z,17.80
2018-06-13T19:24:02.046Z,18.80
2018-06-13T19:26:31.140Z,18.63
2018-06-13T19:29:00.491Z,17.80
2018-06-13T19:31:29.775Z,20.50
2018-06-13T19:33:58.914Z,20.83
2018-06-13T19:36:28.209Z,22.07
2018-06-13T19:38:57.367Z,19.00
2018-06-13T19:41:26.547Z,20.20
2018-06-13T19:43:55.870Z,21.30
2018-06-13T19:46:24.998Z,23.03
2018-06-13T19:48:55.174Z,27.73
2018-06-13T19:51:24.471Z,20.47
2018-06-13T19:53:58.939Z,24.33
2018-06-13T19:56:30.026Z,30.83
2018-06-13T19:58:59.123Z,34.30
2018-06-13T20:01:28.181Z,22.43
2018-06-13T20:04:02.740Z,22.13
2018-06-13T20:06:31.844Z,23.73
2018-06-13T20:09:01.055Z,25.10
2018-06-13T20:11:29.957Z,21.67
2018-06-13T20:14:04.391Z,25.23
2018-06-13T20:16:48.535Z,22.43
2018-06-13T20:19:23.447Z,21.87
2018-06-13T20:21:53.328Z,28.00
2018-06-13T20:24:22.397Z,22.00
2018-06-13T20:26:56.661Z,24.53
2018-06-13T20:29:31.257Z,22.40
2018-06-13T20:32:00.451Z,24.27
2018-06-13T20:34:29.989Z,24.30
2018-06-13T20:36:58.798Z,25.00
2018-06-13T20:39:27.771Z,25.50
2018-06-13T20:41:56.726Z,24.00
2018-06-13T20:44:25.831Z,26.17
2018-06-13T20:46:54.999Z,31.00
2018-06-13T20:49:24.303Z,26.10
2018-06-13T20:51:53.529Z,24.50
2018-06-13T20:54:22.727Z,25.70
2018-06-13T20:56:51.932Z,23.47
2018-06-13T20:59:21.137Z,24.73
2018-06-13T21:01:50.231Z,24.33
2018-06-13T21:04:19.681Z,23.93
2018-06-13T21:06:48.799Z,36.50
2018-06-13T21:09:18.074Z,27.93
2018-06-13T21:11:47.567Z,27.87
2018-06-13T21:14:16.658Z,29.47
2018-06-13T21:16:45.806Z,29.90
2018-06-13T21:19:15.021Z,28.03
2018-06-13T21:21:44.225Z,28.43
2018-06-13T21:24:12.964Z,30.57
2018-06-13T21:26:42.228Z,34.93
2018-06-13T21:29:11.969Z,31.40
2018-06-13T21:31:41.083Z,28.27
2018-06-13T21:34:10.345Z,26.77
2018-06-13T21:36:39.477Z,25.93
2018-06-13T21:39:10.461Z,27.73
2018-06-13T21:41:40.013Z,29.83
2018-06-13T21:44:09.165Z,25.80
2018-06-13T21:46:38.255Z,27.40
2018-06-13T21:49:07.721Z,27.33
2018-06-13T21:51:36.801Z,29.93
2018-06-13T21:54:06.016Z,27.80
2018-06-13T21:56:35.281Z,26.67
2018-06-13T21:59:04.587Z,29.53
2018-06-13T22:01:33.683Z,28.47
2018-06-13T22:04:02.845Z,30.90
2018-06-13T22:06:32.123Z,29.30
2018-06-13T22:09:01.246Z,29.23
2018-06-13T22:11:30.823Z,27.80
2018-06-13T22:14:00.411Z,30.67
2018-06-13T22:16:29.603Z,29.43
2018-06-13T22:18:59.087Z,43.07
2018-06-13T22:21:28.284Z,30.63
2018-06-13T22:23:57.548Z,29.37
2018-06-13T22:26:26.883Z,29.30
2018-06-13T22:28:56.031Z,34.03
2018-06-13T22:31:25.171Z,32.80
2018-06-13T22:33:54.719Z,26.27
2018-06-13T22:36:23.809Z,27.00
2018-06-13T22:38:52.897Z,25.53
2018-06-13T22:41:22.111Z,34.23
2018-06-13T22:43:51.349Z,31.37
2018-06-13T22:46:20.577Z,30.00
2018-06-13T22:48:50.309Z,30.27
2018-06-13T22:51:19.407Z,34.80
2018-06-13T22:53:48.537Z,31.97
2018-06-13T22:56:17.780Z,30.40
2018-06-13T22:58:47.591Z,32.13
2018-06-13T23:01:16.673Z,33.13
2018-06-13T23:03:46.068Z,30.37
2018-06-13T23:06:15.301Z,32.73
2018-06-13T23:08:44.486Z,27.73
2018-06-13T23:11:13.730Z,30.83
2018-06-13T23:13:42.987Z,31.90
2018-06-13T23:16:12.208Z,29.13
2018-06-13T23:18:41.579Z,27.40
2018-06-13T23:21:10.690Z,28.13
2018-06-13T23:23:40.851Z,35.00
2018-06-13T23:26:09.733Z,34.80
2018-06-13T23:28:38.765Z,33.40
2018-06-13T23:31:07.823Z,30.03
2018-06-13T23:33:36.975Z,31.40
2018-06-13T23:36:06.025Z,31.40
2018-06-13T23:38:35.143Z,32.53
2018-06-13T23:41:04.358Z,33.20
2018-06-13T23:43:33.545Z,31.57
2018-06-13T23:46:02.691Z,33.37
2018-06-13T23:48:33.209Z,30.97
2018-06-13T23:51:02.317Z,34.87
2018-06-13T23:53:31.565Z,36.87
2018-06-13T23:56:00.666Z,34.30
2018-06-13T23:58:29.963Z,32.90
